sensor_id;sensor_type;location;lat;lon;timestamp;temperature;humidity
2639;DHT22;1329;51.384;7.122;2023-06-19T00:00:52;25.50;1.00
2639;DHT22;1329;51.384;7.122;2023-06-19T00:03:19;25.40;1.00
2639;DHT22;1329;51.384;7.122;2023-06-19T00:05:46;25.40;1.00
2639;DHT22;1329;51.384;7.122;2023-06-19T00:08:13;25.40;1.00
2639;DHT22;1329;51.384;7.122;2023-06-19T00:10:40;25.30;1.00
2639;DHT22;1329;51.384;7.122;2023-06-19T00:13:08;25.20;1.00
2639;DHT22;1329;51.384;7.122;2023-06-19T00:15:35;25.20;1.00
2639;DHT22;1329;51.384;7.122;2023-06-19T00:18:02;25.10;1.00
2639;DHT22;1329;51.384;7.122;2023-06-19T00:20:29;25.10;1.00
2639;DHT22;1329;51.384;7.122;2023-06-19T00:22:56;25.00;1.00
2639;DHT22;1329;51.384;7.122;2023-06-19T00:25:29;24.90;1.00
2639;DHT22;1329;51.384;7.122;2023-06-19T00:27:55;24.90;1.00
2639;DHT22;1329;51.384;7.122;2023-06-19T00:30:24;24.80;1.00
2639;DHT22;1329;51.384;7.122;2023-06-19T00:32:51;24.80;1.00
2639;DHT22;1329;51.384;7.122;2023-06-19T00:35:21;24.70;1.00
2639;DHT22;1329;51.384;7.122;2023-06-19T00:37:48;24.60;1.00
2639;DHT22;1329;51.384;7.122;2023-06-19T00:40:26;24.60;1.00
2639;DHT22;1329;51.384;7.122;2023-06-19T00:42:54;24.50;1.00
2639;DHT22;1329;51.384;7.122;2023-06-19T00:45:21;24.50;1.00
2639;DHT22;1329;51.384;7.122;2023-06-19T00:47:50;24.40;1.00
2639;DHT22;1329;51.384;7.122;2023-06-19T00:50:20;24.40;1.00
2639;DHT22;1329;51.384;7.122;2023-06-19T00:52:48;24.30;1.00
2639;DHT22;1329;51.384;7.122;2023-06-19T00:55:16;24.30;1.00
2639;DHT22;1329;51.384;7.122;2023-06-19T00:57:43;24.20;1.00
2639;DHT22;1329;51.384;7.122;2023-06-19T01:00:12;24.10;1.00
2639;DHT22;1329;51.384;7.122;2023-06-19T01:02:40;24.10;1.00
2639;DHT22;1329;51.384;7.122;2023-06-19T01:05:14;24.00;1.00
2639;DHT22;1329;51.384;7.122;2023-06-19T01:08:49;24.10;1.00
2639;DHT22;1329;51.384;7.122;2023-06-19T01:11:27;24.10;1.00
2639;DHT22;1329;51.384;7.122;2023-06-19T01:15:13;24.10;1.00
2639;DHT22;1329;51.384;7.122;2023-06-19T01:17:39;24.10;1.00
2639;DHT22;1329;51.384;7.122;2023-06-19T01:20:42;24.00;1.00
2639;DHT22;1329;51.384;7.122;2023-06-19T01:26:11;24.00;1.00
2639;DHT22;1329;51.384;7.122;2023-06-19T01:29:15;24.00;1.00
2639;DHT22;1329;51.384;7.122;2023-06-19T01:32:02;24.00;1.00
2639;DHT22;1329;51.384;7.122;2023-06-19T01:35:09;23.90;1.00
2639;DHT22;1329;51.384;7.122;2023-06-19T01:37:45;24.00;1.00
2639;DHT22;1329;51.384;7.122;2023-06-19T01:40:46;23.90;1.00
2639;DHT22;1329;51.384;7.122;2023-06-19T01:43:44;23.90;1.00
2639;DHT22;1329;51.384;7.122;2023-06-19T01:46:30;23.90;1.00
2639;DHT22;1329;51.384;7.122;2023-06-19T01:49:18;23.90;1.00
2639;DHT22;1329;51.384;7.122;2023-06-19T01:52:08;23.80;1.00
2639;DHT22;1329;51.384;7.122;2023-06-19T01:54:56;23.80;1.00
2639;DHT22;1329;51.384;7.122;2023-06-19T01:57:43;23.80;1.00
2639;DHT22;1329;51.384;7.122;2023-06-19T02:00:24;23.80;1.00
2639;DHT22;1329;51.384;7.122;2023-06-19T02:02:57;23.70;1.00
2639;DHT22;1329;51.384;7.122;2023-06-19T02:05:54;23.70;1.00
2639;DHT22;1329;51.384;7.122;2023-06-19T02:09:07;23.60;1.00
2639;DHT22;1329;51.384;7.122;2023-06-19T02:11:38;23.60;1.00
2639;DHT22;1329;51.384;7.122;2023-06-19T02:14:16;23.60;1.00
2639;DHT22;1329;51.384;7.122;2023-06-19T02:16:55;23.50;1.00
2639;DHT22;1329;51.384;7.122;2023-06-19T02:19:46;23.50;1.00
2639;DHT22;1329;51.384;7.122;2023-06-19T02:26:26;23.40;1.00
2639;DHT22;1329;51.384;7.122;2023-06-19T02:29:20;23.40;1.00
2639;DHT22;1329;51.384;7.122;2023-06-19T02:32:29;23.30;1.00
2639;DHT22;1329;51.384;7.122;2023-06-19T02:38:21;23.30;1.00
2639;DHT22;1329;51.384;7.122;2023-06-19T02:41:03;23.40;1.00
2639;DHT22;1329;51.384;7.122;2023-06-19T02:47:44;23.50;1.00
2639;DHT22;1329;51.384;7.122;2023-06-19T02:51:42;23.60;1.00
2639;DHT22;1329;51.384;7.122;2023-06-19T02:54:20;23.70;1.00
2639;DHT22;1329;51.384;7.122;2023-06-19T03:01:35;23.90;1.00
2639;DHT22;1329;51.384;7.122;2023-06-19T03:04:24;24.00;1.00
2639;DHT22;1329;51.384;7.122;2023-06-19T03:06:51;24.00;1.00
2639;DHT22;1329;51.384;7.122;2023-06-19T03:12:50;24.10;1.00
2639;DHT22;1329;51.384;7.122;2023-06-19T03:15:28;24.20;1.00
2639;DHT22;1329;51.384;7.122;2023-06-19T03:18:40;24.20;1.00
2639;DHT22;1329;51.384;7.122;2023-06-19T03:21:40;24.30;1.00
2639;DHT22;1329;51.384;7.122;2023-06-19T03:24:57;24.30;1.00
2639;DHT22;1329;51.384;7.122;2023-06-19T03:27:42;24.40;1.00
2639;DHT22;1329;51.384;7.122;2023-06-19T03:37:57;24.40;1.00
2639;DHT22;1329;51.384;7.122;2023-06-19T03:41:04;24.30;1.00
2639;DHT22;1329;51.384;7.122;2023-06-19T03:44:16;24.30;1.00
2639;DHT22;1329;51.384;7.122;2023-06-19T03:54:13;24.20;1.00
2639;DHT22;1329;51.384;7.122;2023-06-19T04:00:58;24.20;1.00
2639;DHT22;1329;51.384;7.122;2023-06-19T04:07:15;24.00;1.00
2639;DHT22;1329;51.384;7.122;2023-06-19T04:10:22;24.00;1.00
2639;DHT22;1329;51.384;7.122;2023-06-19T04:16:23;23.90;1.00
2639;DHT22;1329;51.384;7.122;2023-06-19T04:22:39;23.80;1.00
2639;DHT22;1329;51.384;7.122;2023-06-19T04:25:37;23.80;1.00
2639;DHT22;1329;51.384;7.122;2023-06-19T04:28:26;23.80;1.00
2639;DHT22;1329;51.384;7.122;2023-06-19T04:32:54;23.70;1.00
2639;DHT22;1329;51.384;7.122;2023-06-19T04:35:00;23.70;1.00
2639;DHT22;1329;51.384;7.122;2023-06-19T04:38:07;23.60;1.00
2639;DHT22;1329;51.384;7.122;2023-06-19T04:44:25;23.70;1.00
2639;DHT22;1329;51.384;7.122;2023-06-19T04:47:12;23.70;1.00
2639;DHT22;1329;51.384;7.122;2023-06-19T04:50:37;23.70;1.00
2639;DHT22;1329;51.384;7.122;2023-06-19T04:53:07;23.70;1.00
2639;DHT22;1329;51.384;7.122;2023-06-19T04:56:03;23.60;1.00
2639;DHT22;1329;51.384;7.122;2023-06-19T04:59:08;23.70;1.00
2639;DHT22;1329;51.384;7.122;2023-06-19T05:02:14;23.60;1.00
2639;DHT22;1329;51.384;7.122;2023-06-19T05:05:23;23.60;1.00
2639;DHT22;1329;51.384;7.122;2023-06-19T05:11:16;23.50;1.00
2639;DHT22;1329;51.384;7.122;2023-06-19T05:14:19;23.50;1.00
2639;DHT22;1329;51.384;7.122;2023-06-19T05:17:17;23.50;1.00
2639;DHT22;1329;51.384;7.122;2023-06-19T05:30:05;23.60;1.00
2639;DHT22;1329;51.384;7.122;2023-06-19T05:36:04;23.70;1.00
2639;DHT22;1329;51.384;7.122;2023-06-19T05:43:15;23.80;1.00
2639;DHT22;1329;51.384;7.122;2023-06-19T05:46:33;23.70;1.00
2639;DHT22;1329;51.384;7.122;2023-06-19T05:49:10;23.80;1.00
2639;DHT22;1329;51.384;7.122;2023-06-19T05:51:57;23.70;1.00
2639;DHT22;1329;51.384;7.122;2023-06-19T05:55:05;23.80;1.00
2639;DHT22;1329;51.384;7.122;2023-06-19T05:58:19;23.80;1.00
2639;DHT22;1329;51.384;7.122;2023-06-19T06:01:15;23.80;1.00
2639;DHT22;1329;51.384;7.122;2023-06-19T06:04:07;23.80;1.00
2639;DHT22;1329;51.384;7.122;2023-06-19T06:07:09;23.80;1.00
2639;DHT22;1329;51.384;7.122;2023-06-19T06:10:06;23.90;1.00
2639;DHT22;1329;51.384;7.122;2023-06-19T06:12:44;23.90;1.00
2639;DHT22;1329;51.384;7.122;2023-06-19T06:16:10;23.90;1.00
2639;DHT22;1329;51.384;7.122;2023-06-19T06:25:22;23.90;1.00
2639;DHT22;1329;51.384;7.122;2023-06-19T06:28:16;24.00;1.00
2639;DHT22;1329;51.384;7.122;2023-06-19T06:34:14;24.10;1.00
2639;DHT22;1329;51.384;7.122;2023-06-19T06:43:39;24.10;1.00
2639;DHT22;1329;51.384;7.122;2023-06-19T06:46:49;24.10;1.00
2639;DHT22;1329;51.384;7.122;2023-06-19T06:49:40;24.10;1.00
2639;DHT22;1329;51.384;7.122;2023-06-19T06:52:18;24.20;1.00
2639;DHT22;1329;51.384;7.122;2023-06-19T06:55:06;24.20;1.00
2639;DHT22;1329;51.384;7.122;2023-06-19T07:01:54;24.30;1.00
2639;DHT22;1329;51.384;7.122;2023-06-19T07:05:09;24.40;1.00
2639;DHT22;1329;51.384;7.122;2023-06-19T07:08:19;24.50;1.00
2639;DHT22;1329;51.384;7.122;2023-06-19T07:21:40;24.50;1.00
2639;DHT22;1329;51.384;7.122;2023-06-19T07:25:14;24.50;1.00
2639;DHT22;1329;51.384;7.122;2023-06-19T07:31:06;24.40;1.00
2639;DHT22;1329;51.384;7.122;2023-06-19T07:34:14;24.40;1.00
2639;DHT22;1329;51.384;7.122;2023-06-19T07:37:14;24.40;1.00
2639;DHT22;1329;51.384;7.122;2023-06-19T07:39:58;24.30;1.00
2639;DHT22;1329;51.384;7.122;2023-06-19T07:42:33;24.20;1.00
2639;DHT22;1329;51.384;7.122;2023-06-19T07:45:24;24.20;1.00
2639;DHT22;1329;51.384;7.122;2023-06-19T07:48:30;24.20;1.00
2639;DHT22;1329;51.384;7.122;2023-06-19T07:51:20;24.20;1.00
2639;DHT22;1329;51.384;7.122;2023-06-19T07:53:53;24.10;1.00
2639;DHT22;1329;51.384;7.122;2023-06-19T07:57:13;24.10;1.00
2639;DHT22;1329;51.384;7.122;2023-06-19T08:00:45;24.10;1.00
2639;DHT22;1329;51.384;7.122;2023-06-19T08:03:20;24.10;1.00
2639;DHT22;1329;51.384;7.122;2023-06-19T08:10:21;24.30;1.00
2639;DHT22;1329;51.384;7.122;2023-06-19T08:12:41;24.30;1.00
2639;DHT22;1329;51.384;7.122;2023-06-19T08:15:33;24.40;1.00
2639;DHT22;1329;51.384;7.122;2023-06-19T08:18:33;24.40;1.00
2639;DHT22;1329;51.384;7.122;2023-06-19T08:21:54;24.50;1.00
2639;DHT22;1329;51.384;7.122;2023-06-19T08:25:08;24.50;1.00
2639;DHT22;1329;51.384;7.122;2023-06-19T08:31:06;24.50;1.00
2639;DHT22;1329;51.384;7.122;2023-06-19T08:46:17;24.40;1.00
2639;DHT22;1329;51.384;7.122;2023-06-19T08:47:23;24.30;1.00
2639;DHT22;1329;51.384;7.122;2023-06-19T08:50:28;24.40;1.00
2639;DHT22;1329;51.384;7.122;2023-06-19T08:57:09;24.40;1.00
2639;DHT22;1329;51.384;7.122;2023-06-19T09:03:37;24.60;1.00
2639;DHT22;1329;51.384;7.122;2023-06-19T09:06:22;24.70;1.00
2639;DHT22;1329;51.384;7.122;2023-06-19T09:09:34;24.90;1.00
2639;DHT22;1329;51.384;7.122;2023-06-19T09:12:38;25.00;1.00
2639;DHT22;1329;51.384;7.122;2023-06-19T09:32:44;26.40;1.00
2639;DHT22;1329;51.384;7.122;2023-06-19T09:35:51;26.80;1.00
2639;DHT22;1329;51.384;7.122;2023-06-19T09:40:03;27.00;1.00
2639;DHT22;1329;51.384;7.122;2023-06-19T09:46:48;27.40;1.00
2639;DHT22;1329;51.384;7.122;2023-06-19T09:50:16;27.60;1.00
2639;DHT22;1329;51.384;7.122;2023-06-19T09:57:24;27.70;1.00
2639;DHT22;1329;51.384;7.122;2023-06-19T10:00:39;27.60;1.00
2639;DHT22;1329;51.384;7.122;2023-06-19T10:07:36;27.50;1.00
2639;DHT22;1329;51.384;7.122;2023-06-19T10:10:54;27.50;1.00
2639;DHT22;1329;51.384;7.122;2023-06-19T10:14:05;27.50;1.00
2639;DHT22;1329;51.384;7.122;2023-06-19T10:17:14;27.50;1.00
2639;DHT22;1329;51.384;7.122;2023-06-19T10:23:35;27.40;1.00
2639;DHT22;1329;51.384;7.122;2023-06-19T10:27:20;27.30;1.00
2639;DHT22;1329;51.384;7.122;2023-06-19T10:30:08;27.30;1.00
2639;DHT22;1329;51.384;7.122;2023-06-19T10:33:12;27.40;1.00
2639;DHT22;1329;51.384;7.122;2023-06-19T10:37:01;27.40;1.00
2639;DHT22;1329;51.384;7.122;2023-06-19T10:40:28;27.40;1.00
2639;DHT22;1329;51.384;7.122;2023-06-19T10:46:52;27.30;1.00
2639;DHT22;1329;51.384;7.122;2023-06-19T10:49:46;27.30;1.00
2639;DHT22;1329;51.384;7.122;2023-06-19T10:52:34;27.40;1.00
2639;DHT22;1329;51.384;7.122;2023-06-19T11:00:02;27.70;1.00
2639;DHT22;1329;51.384;7.122;2023-06-19T11:03:10;27.90;1.00
2639;DHT22;1329;51.384;7.122;2023-06-19T11:06:31;28.00;1.00
2639;DHT22;1329;51.384;7.122;2023-06-19T11:13:27;28.20;1.00
2639;DHT22;1329;51.384;7.122;2023-06-19T11:19:31;28.20;1.00
2639;DHT22;1329;51.384;7.122;2023-06-19T11:26:29;28.20;1.00
2639;DHT22;1329;51.384;7.122;2023-06-19T11:30:01;28.20;1.00
2639;DHT22;1329;51.384;7.122;2023-06-19T11:33:19;28.20;1.00
2639;DHT22;1329;51.384;7.122;2023-06-19T11:40:12;28.30;1.00
2639;DHT22;1329;51.384;7.122;2023-06-19T11:47:11;28.40;1.00
2639;DHT22;1329;51.384;7.122;2023-06-19T11:50:46;28.50;1.00
2639;DHT22;1329;51.384;7.122;2023-06-19T11:54:05;28.50;1.00
2639;DHT22;1329;51.384;7.122;2023-06-19T11:57:04;28.60;1.00
2639;DHT22;1329;51.384;7.122;2023-06-19T12:00:20;28.60;1.00
2639;DHT22;1329;51.384;7.122;2023-06-19T12:04:14;28.70;1.00
2639;DHT22;1329;51.384;7.122;2023-06-19T12:07:27;28.90;1.00
2639;DHT22;1329;51.384;7.122;2023-06-19T12:13:54;29.10;1.00
2639;DHT22;1329;51.384;7.122;2023-06-19T12:17:53;29.20;1.00
2639;DHT22;1329;51.384;7.122;2023-06-19T12:20:59;29.40;1.00
2639;DHT22;1329;51.384;7.122;2023-06-19T12:23:55;29.40;1.00
2639;DHT22;1329;51.384;7.122;2023-06-19T12:28:07;29.60;1.00
2639;DHT22;1329;51.384;7.122;2023-06-19T12:30:33;29.70;1.00
2639;DHT22;1329;51.384;7.122;2023-06-19T12:36:56;29.80;1.00
2639;DHT22;1329;51.384;7.122;2023-06-19T12:41:05;29.80;1.00
2639;DHT22;1329;51.384;7.122;2023-06-19T12:44:05;29.90;1.00
2639;DHT22;1329;51.384;7.122;2023-06-19T12:50:45;29.90;1.00
2639;DHT22;1329;51.384;7.122;2023-06-19T12:57:43;30.10;1.00
2639;DHT22;1329;51.384;7.122;2023-06-19T13:00:45;30.20;1.00
2639;DHT22;1329;51.384;7.122;2023-06-19T13:21:21;29.90;1.00
2639;DHT22;1329;51.384;7.122;2023-06-19T13:24:09;29.90;1.00
2639;DHT22;1329;51.384;7.122;2023-06-19T13:31:33;29.90;1.00
2639;DHT22;1329;51.384;7.122;2023-06-19T13:34:24;30.00;1.00
2639;DHT22;1329;51.384;7.122;2023-06-19T13:40:56;30.20;1.00
2639;DHT22;1329;51.384;7.122;2023-06-19T13:44:05;30.40;1.00
2639;DHT22;1329;51.384;7.122;2023-06-19T13:51:14;30.50;1.00
2639;DHT22;1329;51.384;7.122;2023-06-19T13:58:07;30.60;1.00
2639;DHT22;1329;51.384;7.122;2023-06-19T14:01:09;30.60;1.00
2639;DHT22;1329;51.384;7.122;2023-06-19T14:04:36;30.70;1.00
2639;DHT22;1329;51.384;7.122;2023-06-19T14:11:19;30.90;1.00
2639;DHT22;1329;51.384;7.122;2023-06-19T14:14:30;31.10;1.00
2639;DHT22;1329;51.384;7.122;2023-06-19T14:22:09;31.30;1.00
2639;DHT22;1329;51.384;7.122;2023-06-19T14:25:13;31.30;1.00
2639;DHT22;1329;51.384;7.122;2023-06-19T14:34:50;31.60;1.00
2639;DHT22;1329;51.384;7.122;2023-06-19T14:37:43;31.70;1.00
2639;DHT22;1329;51.384;7.122;2023-06-19T14:40:53;31.80;1.00
2639;DHT22;1329;51.384;7.122;2023-06-19T14:43:40;31.90;1.00
2639;DHT22;1329;51.384;7.122;2023-06-19T14:46:13;32.00;1.00
2639;DHT22;1329;51.384;7.122;2023-06-19T14:48:40;32.00;1.00
2639;DHT22;1329;51.384;7.122;2023-06-19T14:51:07;32.10;1.00
2639;DHT22;1329;51.384;7.122;2023-06-19T14:53:38;32.10;1.00
2639;DHT22;1329;51.384;7.122;2023-06-19T14:56:05;32.20;1.00
2639;DHT22;1329;51.384;7.122;2023-06-19T14:58:32;32.20;1.00
2639;DHT22;1329;51.384;7.122;2023-06-19T15:01:13;32.20;1.00
2639;DHT22;1329;51.384;7.122;2023-06-19T15:03:42;32.30;1.00
2639;DHT22;1329;51.384;7.122;2023-06-19T15:06:09;32.30;1.00
2639;DHT22;1329;51.384;7.122;2023-06-19T15:08:36;32.40;1.00
2639;DHT22;1329;51.384;7.122;2023-06-19T15:11:04;32.40;1.00
2639;DHT22;1329;51.384;7.122;2023-06-19T15:13:32;32.40;1.00
2639;DHT22;1329;51.384;7.122;2023-06-19T15:16:00;32.40;1.00
2639;DHT22;1329;51.384;7.122;2023-06-19T15:18:40;32.40;1.00
2639;DHT22;1329;51.384;7.122;2023-06-19T15:21:07;32.50;1.00
2639;DHT22;1329;51.384;7.122;2023-06-19T15:23:34;32.50;1.00
2639;DHT22;1329;51.384;7.122;2023-06-19T15:26:02;32.60;1.00
2639;DHT22;1329;51.384;7.122;2023-06-19T15:28:32;32.60;1.00
2639;DHT22;1329;51.384;7.122;2023-06-19T15:31:05;32.60;1.00
2639;DHT22;1329;51.384;7.122;2023-06-19T15:33:32;32.60;1.00
2639;DHT22;1329;51.384;7.122;2023-06-19T15:36:01;32.60;1.00
2639;DHT22;1329;51.384;7.122;2023-06-19T15:38:28;32.70;1.00
2639;DHT22;1329;51.384;7.122;2023-06-19T15:40:55;32.70;1.00
2639;DHT22;1329;51.384;7.122;2023-06-19T15:43:23;32.70;1.00
2639;DHT22;1329;51.384;7.122;2023-06-19T15:45:54;32.70;1.00
2639;DHT22;1329;51.384;7.122;2023-06-19T15:48:21;32.70;1.00
2639;DHT22;1329;51.384;7.122;2023-06-19T15:50:48;32.80;1.00
2639;DHT22;1329;51.384;7.122;2023-06-19T15:53:16;32.80;1.00
2639;DHT22;1329;51.384;7.122;2023-06-19T15:55:44;32.80;1.00
2639;DHT22;1329;51.384;7.122;2023-06-19T15:58:13;32.80;1.00
2639;DHT22;1329;51.384;7.122;2023-06-19T16:00:40;32.80;1.00
2639;DHT22;1329;51.384;7.122;2023-06-19T16:03:07;32.80;1.00
2639;DHT22;1329;51.384;7.122;2023-06-19T16:05:35;32.80;1.00
2639;DHT22;1329;51.384;7.122;2023-06-19T16:08:02;32.80;1.00
2639;DHT22;1329;51.384;7.122;2023-06-19T16:10:30;32.80;1.00
2639;DHT22;1329;51.384;7.122;2023-06-19T16:12:59;32.80;1.00
2639;DHT22;1329;51.384;7.122;2023-06-19T16:15:26;32.80;1.00
2639;DHT22;1329;51.384;7.122;2023-06-19T16:17:54;32.80;1.00
2639;DHT22;1329;51.384;7.122;2023-06-19T16:20:21;32.70;1.00
2639;DHT22;1329;51.384;7.122;2023-06-19T16:22:49;32.80;1.00
2639;DHT22;1329;51.384;7.122;2023-06-19T16:25:25;32.80;1.00
2639;DHT22;1329;51.384;7.122;2023-06-19T16:27:53;32.80;1.00
2639;DHT22;1329;51.384;7.122;2023-06-19T16:30:20;32.70;1.00
2639;DHT22;1329;51.384;7.122;2023-06-19T16:32:48;32.80;1.00
2639;DHT22;1329;51.384;7.122;2023-06-19T16:35:15;32.70;1.00
2639;DHT22;1329;51.384;7.122;2023-06-19T16:37:47;32.70;1.00
2639;DHT22;1329;51.384;7.122;2023-06-19T16:40:15;32.70;1.00
2639;DHT22;1329;51.384;7.122;2023-06-19T16:42:45;32.70;1.00
2639;DHT22;1329;51.384;7.122;2023-06-19T16:45:14;32.70;1.00
2639;DHT22;1329;51.384;7.122;2023-06-19T16:47:41;32.70;1.00
2639;DHT22;1329;51.384;7.122;2023-06-19T16:50:09;32.70;1.00
2639;DHT22;1329;51.384;7.122;2023-06-19T16:52:36;32.70;1.00
2639;DHT22;1329;51.384;7.122;2023-06-19T16:55:03;32.60;1.00
2639;DHT22;1329;51.384;7.122;2023-06-19T16:57:31;32.60;1.00
2639;DHT22;1329;51.384;7.122;2023-06-19T16:59:58;32.70;1.00
2639;DHT22;1329;51.384;7.122;2023-06-19T17:02:27;32.60;1.00
2639;DHT22;1329;51.384;7.122;2023-06-19T17:04:54;32.60;1.00
2639;DHT22;1329;51.384;7.122;2023-06-19T17:07:21;32.60;1.00
2639;DHT22;1329;51.384;7.122;2023-06-19T17:09:49;32.60;1.00
2639;DHT22;1329;51.384;7.122;2023-06-19T17:12:15;32.60;1.00
2639;DHT22;1329;51.384;7.122;2023-06-19T17:14:42;32.50;1.00
2639;DHT22;1329;51.384;7.122;2023-06-19T17:17:09;32.60;1.00
2639;DHT22;1329;51.384;7.122;2023-06-19T17:19:41;32.60;1.00
2639;DHT22;1329;51.384;7.122;2023-06-19T17:22:08;32.60;1.00
2639;DHT22;1329;51.384;7.122;2023-06-19T17:24:35;32.60;1.00
2639;DHT22;1329;51.384;7.122;2023-06-19T17:27:04;32.60;1.00
2639;DHT22;1329;51.384;7.122;2023-06-19T17:29:31;32.50;1.00
2639;DHT22;1329;51.384;7.122;2023-06-19T17:31:59;32.50;1.00
2639;DHT22;1329;51.384;7.122;2023-06-19T17:34:25;32.50;1.00
2639;DHT22;1329;51.384;7.122;2023-06-19T17:36:59;32.40;1.00
2639;DHT22;1329;51.384;7.122;2023-06-19T17:39:29;32.40;1.00
2639;DHT22;1329;51.384;7.122;2023-06-19T17:41:56;32.40;1.00
2639;DHT22;1329;51.384;7.122;2023-06-19T17:44:23;32.30;1.00
2639;DHT22;1329;51.384;7.122;2023-06-19T17:46:55;32.30;1.00
2639;DHT22;1329;51.384;7.122;2023-06-19T17:49:25;32.20;1.00
2639;DHT22;1329;51.384;7.122;2023-06-19T17:51:52;32.10;1.00
2639;DHT22;1329;51.384;7.122;2023-06-19T17:54:20;32.10;1.00
2639;DHT22;1329;51.384;7.122;2023-06-19T17:56:48;32.00;1.00
2639;DHT22;1329;51.384;7.122;2023-06-19T17:59:18;31.80;1.00
2639;DHT22;1329;51.384;7.122;2023-06-19T18:01:46;31.70;1.00
2639;DHT22;1329;51.384;7.122;2023-06-19T18:04:16;31.60;1.00
2639;DHT22;1329;51.384;7.122;2023-06-19T18:06:50;31.40;1.00
2639;DHT22;1329;51.384;7.122;2023-06-19T18:09:17;31.30;1.00
2639;DHT22;1329;51.384;7.122;2023-06-19T18:11:46;31.10;1.00
2639;DHT22;1329;51.384;7.122;2023-06-19T18:14:13;30.90;1.00
2639;DHT22;1329;51.384;7.122;2023-06-19T18:16:46;30.80;1.00
2639;DHT22;1329;51.384;7.122;2023-06-19T18:19:13;30.60;1.00
2639;DHT22;1329;51.384;7.122;2023-06-19T18:21:41;30.50;1.00
2639;DHT22;1329;51.384;7.122;2023-06-19T18:24:16;30.30;1.00
2639;DHT22;1329;51.384;7.122;2023-06-19T18:26:42;30.10;1.00
2639;DHT22;1329;51.384;7.122;2023-06-19T18:29:11;30.00;1.00
2639;DHT22;1329;51.384;7.122;2023-06-19T18:31:38;29.90;1.00
2639;DHT22;1329;51.384;7.122;2023-06-19T18:34:05;29.80;1.00
2639;DHT22;1329;51.384;7.122;2023-06-19T18:36:34;29.60;1.00
2639;DHT22;1329;51.384;7.122;2023-06-19T18:39:20;29.50;1.00
2639;DHT22;1329;51.384;7.122;2023-06-19T18:41:59;29.40;1.00
2639;DHT22;1329;51.384;7.122;2023-06-19T18:44:32;29.30;1.00
2639;DHT22;1329;51.384;7.122;2023-06-19T18:47:03;29.30;1.00
2639;DHT22;1329;51.384;7.122;2023-06-19T18:49:54;29.10;1.00
2639;DHT22;1329;51.384;7.122;2023-06-19T18:52:21;29.00;1.00
2639;DHT22;1329;51.384;7.122;2023-06-19T18:54:48;28.90;1.00
2639;DHT22;1329;51.384;7.122;2023-06-19T18:57:16;28.80;1.00
2639;DHT22;1329;51.384;7.122;2023-06-19T18:59:44;28.70;1.00
2639;DHT22;1329;51.384;7.122;2023-06-19T19:02:16;28.70;1.00
2639;DHT22;1329;51.384;7.122;2023-06-19T19:04:44;28.60;1.00
2639;DHT22;1329;51.384;7.122;2023-06-19T19:07:18;28.60;1.00
2639;DHT22;1329;51.384;7.122;2023-06-19T19:09:45;28.40;1.00
2639;DHT22;1329;51.384;7.122;2023-06-19T19:12:14;28.30;1.00
2639;DHT22;1329;51.384;7.122;2023-06-19T19:14:41;28.20;1.00
2639;DHT22;1329;51.384;7.122;2023-06-19T19:17:09;28.10;1.00
2639;DHT22;1329;51.384;7.122;2023-06-19T19:19:45;28.10;1.00
2639;DHT22;1329;51.384;7.122;2023-06-19T19:22:13;28.00;1.00
2639;DHT22;1329;51.384;7.122;2023-06-19T19:24:40;27.90;1.00
2639;DHT22;1329;51.384;7.122;2023-06-19T19:27:07;27.80;1.00
2639;DHT22;1329;51.384;7.122;2023-06-19T19:29:37;27.80;1.00
2639;DHT22;1329;51.384;7.122;2023-06-19T19:32:12;27.70;1.00
2639;DHT22;1329;51.384;7.122;2023-06-19T19:34:48;27.70;1.00
2639;DHT22;1329;51.384;7.122;2023-06-19T19:37:16;27.60;1.00
2639;DHT22;1329;51.384;7.122;2023-06-19T19:39:43;27.40;1.00
2639;DHT22;1329;51.384;7.122;2023-06-19T19:42:10;27.40;1.00
2639;DHT22;1329;51.384;7.122;2023-06-19T19:44:37;27.30;1.00
2639;DHT22;1329;51.384;7.122;2023-06-19T19:47:07;27.20;1.00
2639;DHT22;1329;51.384;7.122;2023-06-19T19:49:35;27.10;1.00
2639;DHT22;1329;51.384;7.122;2023-06-19T19:52:06;27.00;1.00
2639;DHT22;1329;51.384;7.122;2023-06-19T19:54:34;27.00;1.00
2639;DHT22;1329;51.384;7.122;2023-06-19T19:57:02;26.90;1.00
2639;DHT22;1329;51.384;7.122;2023-06-19T19:59:32;26.80;1.00
2639;DHT22;1329;51.384;7.122;2023-06-19T20:02:16;26.80;1.00
2639;DHT22;1329;51.384;7.122;2023-06-19T20:04:52;26.70;1.00
2639;DHT22;1329;51.384;7.122;2023-06-19T20:07:19;26.70;1.00
2639;DHT22;1329;51.384;7.122;2023-06-19T20:09:46;26.60;1.00
2639;DHT22;1329;51.384;7.122;2023-06-19T20:12:13;26.50;1.00
2639;DHT22;1329;51.384;7.122;2023-06-19T20:14:42;26.50;1.00
2639;DHT22;1329;51.384;7.122;2023-06-19T20:17:09;26.40;1.00
2639;DHT22;1329;51.384;7.122;2023-06-19T20:19:37;26.30;1.00
2639;DHT22;1329;51.384;7.122;2023-06-19T20:22:06;26.30;1.00
2639;DHT22;1329;51.384;7.122;2023-06-19T20:24:33;26.20;1.00
2639;DHT22;1329;51.384;7.122;2023-06-19T20:27:00;26.10;1.00
2639;DHT22;1329;51.384;7.122;2023-06-19T20:29:27;26.10;1.00
2639;DHT22;1329;51.384;7.122;2023-06-19T20:31:54;26.10;1.00
2639;DHT22;1329;51.384;7.122;2023-06-19T20:34:22;26.00;1.00
2639;DHT22;1329;51.384;7.122;2023-06-19T20:37:02;25.90;1.00
2639;DHT22;1329;51.384;7.122;2023-06-19T20:39:35;25.90;1.00
2639;DHT22;1329;51.384;7.122;2023-06-19T20:42:12;25.80;1.00
2639;DHT22;1329;51.384;7.122;2023-06-19T20:44:43;25.80;1.00
2639;DHT22;1329;51.384;7.122;2023-06-19T20:47:15;25.70;1.00
2639;DHT22;1329;51.384;7.122;2023-06-19T20:49:42;25.70;1.00
2639;DHT22;1329;51.384;7.122;2023-06-19T20:52:09;25.70;1.00
2639;DHT22;1329;51.384;7.122;2023-06-19T20:54:37;25.70;1.00
2639;DHT22;1329;51.384;7.122;2023-06-19T20:57:13;25.60;1.00
2639;DHT22;1329;51.384;7.122;2023-06-19T20:59:41;25.60;1.00
2639;DHT22;1329;51.384;7.122;2023-06-19T21:02:08;25.60;1.00
2639;DHT22;1329;51.384;7.122;2023-06-19T21:04:39;25.50;1.00
2639;DHT22;1329;51.384;7.122;2023-06-19T21:07:08;25.50;1.00
2639;DHT22;1329;51.384;7.122;2023-06-19T21:09:42;25.40;1.00
2639;DHT22;1329;51.384;7.122;2023-06-19T21:12:14;25.40;1.00
2639;DHT22;1329;51.384;7.122;2023-06-19T21:14:41;25.30;1.00
2639;DHT22;1329;51.384;7.122;2023-06-19T21:17:09;25.30;1.00
2639;DHT22;1329;51.384;7.122;2023-06-19T21:19:36;25.30;1.00
2639;DHT22;1329;51.384;7.122;2023-06-19T21:22:03;25.20;1.00
2639;DHT22;1329;51.384;7.122;2023-06-19T21:24:31;25.20;1.00
2639;DHT22;1329;51.384;7.122;2023-06-19T21:27:08;25.20;1.00
2639;DHT22;1329;51.384;7.122;2023-06-19T21:29:40;25.20;1.00
2639;DHT22;1329;51.384;7.122;2023-06-19T21:32:12;25.10;1.00
2639;DHT22;1329;51.384;7.122;2023-06-19T21:34:47;25.10;1.00
2639;DHT22;1329;51.384;7.122;2023-06-19T21:37:14;25.20;1.00
2639;DHT22;1329;51.384;7.122;2023-06-19T21:39:43;25.00;1.00
2639;DHT22;1329;51.384;7.122;2023-06-19T21:42:16;25.00;1.00
2639;DHT22;1329;51.384;7.122;2023-06-19T21:44:48;25.00;1.00
2639;DHT22;1329;51.384;7.122;2023-06-19T21:47:21;24.90;1.00
2639;DHT22;1329;51.384;7.122;2023-06-19T21:49:48;24.90;1.00
2639;DHT22;1329;51.384;7.122;2023-06-19T21:52:18;24.80;1.00
2639;DHT22;1329;51.384;7.122;2023-06-19T21:54:47;24.80;1.00
2639;DHT22;1329;51.384;7.122;2023-06-19T21:57:19;24.80;1.00
2639;DHT22;1329;51.384;7.122;2023-06-19T21:59:55;24.80;1.00
2639;DHT22;1329;51.384;7.122;2023-06-19T22:02:22;24.80;1.00
2639;DHT22;1329;51.384;7.122;2023-06-19T22:04:49;24.70;1.00
2639;DHT22;1329;51.384;7.122;2023-06-19T22:07:16;24.70;1.00
2639;DHT22;1329;51.384;7.122;2023-06-19T22:09:43;24.60;1.00
2639;DHT22;1329;51.384;7.122;2023-06-19T22:12:10;24.60;1.00
2639;DHT22;1329;51.384;7.122;2023-06-19T22:14:38;24.60;1.00
2639;DHT22;1329;51.384;7.122;2023-06-19T22:17:06;24.50;1.00
2639;DHT22;1329;51.384;7.122;2023-06-19T22:19:33;24.50;1.00
2639;DHT22;1329;51.384;7.122;2023-06-19T22:22:00;24.50;1.00